sensor_id;sensor_type;location;lat;lon;timestamp;pressure;altitude;pressure_sealevel;temperature;humidity
28306;BME280;7516;43.570;1.448;2024-01-15T00:02:02;99231.69;;;10.02;100.00
28306;BME280;7516;43.570;1.448;2024-01-15T00:04:29;99225.44;;;10.03;100.00
28306;BME280;7516;43.570;1.448;2024-01-15T00:06:58;99225.44;;;10.03;100.00
28306;BME280;7516;43.570;1.448;2024-01-15T00:09:25;99219.69;;;10.07;100.00
28306;BME280;7516;43.570;1.448;2024-01-15T00:11:53;99213.91;;;10.12;100.00
28306;BME280;7516;43.570;1.448;2024-01-15T00:14:21;99219.13;;;10.12;100.00
28306;BME280;7516;43.570;1.448;2024-01-15T00:16:48;99215.91;;;10.10;100.00
28306;BME280;7516;43.570;1.448;2024-01-15T00:19:17;99213.06;;;10.11;100.00
28306;BME280;7516;43.570;1.448;2024-01-15T00:21:45;99209.69;;;10.11;100.00
28306;BME280;7516;43.570;1.448;2024-01-15T00:24:14;99215.91;;;10.10;100.00
28306;BME280;7516;43.570;1.448;2024-01-15T00:26:41;99214.63;;;10.06;100.00
28306;BME280;7516;43.570;1.448;2024-01-15T00:29:09;99216.25;;;10.07;100.00
28306;BME280;7516;43.570;1.448;2024-01-15T00:31:37;99215.53;;;10.13;100.00
28306;BME280;7516;43.570;1.448;2024-01-15T00:34:04;99210.28;;;10.13;100.00
28306;BME280;7516;43.570;1.448;2024-01-15T00:36:31;99205.88;;;10.13;100.00
28306;BME280;7516;43.570;1.448;2024-01-15T00:38:59;99202.75;;;10.18;100.00
28306;BME280;7516;43.570;1.448;2024-01-15T00:41:28;99211.56;;;10.17;100.00
28306;BME280;7516;43.570;1.448;2024-01-15T00:43:55;99200.28;;;10.16;100.00
28306;BME280;7516;43.570;1.448;2024-01-15T00:46:23;99194.75;;;10.11;100.00
28306;BME280;7516;43.570;1.448;2024-01-15T00:48:50;99198.47;;;10.17;100.00
28306;BME280;7516;43.570;1.448;2024-01-15T00:51:18;99192.28;;;10.18;100.00
28306;BME280;7516;43.570;1.448;2024-01-15T00:53:45;99182.75;;;10.17;100.00
28306;BME280;7516;43.570;1.448;2024-01-15T00:56:13;99191.88;;;10.21;100.00
28306;BME280;7516;43.570;1.448;2024-01-15T00:58:42;99193.22;;;10.17;100.00
28306;BME280;7516;43.570;1.448;2024-01-15T01:01:12;99191.34;;;10.11;100.00
28306;BME280;7516;43.570;1.448;2024-01-15T01:03:42;99194.22;;;10.16;100.00
28306;BME280;7516;43.570;1.448;2024-01-15T01:06:10;99192.91;;;10.20;100.00
28306;BME280;7516;43.570;1.448;2024-01-15T01:08:38;99195.03;;;10.16;100.00
28306;BME280;7516;43.570;1.448;2024-01-15T01:11:08;99201.63;;;10.12;100.00
28306;BME280;7516;43.570;1.448;2024-01-15T01:13:43;99186.72;;;10.13;100.00
28306;BME280;7516;43.570;1.448;2024-01-15T01:16:11;99181.81;;;10.18;100.00
28306;BME280;7516;43.570;1.448;2024-01-15T01:18:38;99173.94;;;10.18;100.00
28306;BME280;7516;43.570;1.448;2024-01-15T01:21:06;99173.56;;;10.21;100.00
28306;BME280;7516;43.570;1.448;2024-01-15T01:23:33;99169.66;;;10.17;100.00
28306;BME280;7516;43.570;1.448;2024-01-15T01:26:00;99165.72;;;10.21;100.00
28306;BME280;7516;43.570;1.448;2024-01-15T01:28:28;99167.72;;;10.19;100.00
28306;BME280;7516;43.570;1.448;2024-01-15T01:30:57;99167.72;;;10.19;100.00
28306;BME280;7516;43.570;1.448;2024-01-15T01:33:24;99173.94;;;10.18;100.00
28306;BME280;7516;43.570;1.448;2024-01-15T01:35:52;99165.09;;;10.19;100.00
28306;BME280;7516;43.570;1.448;2024-01-15T01:38:19;99153.97;;;10.17;100.00
28306;BME280;7516;43.570;1.448;2024-01-15T01:40:47;99147.19;;;10.23;100.00
28306;BME280;7516;43.570;1.448;2024-01-15T01:43:14;99142.78;;;10.23;100.00
28306;BME280;7516;43.570;1.448;2024-01-15T01:45:42;99148.56;;;10.18;100.00
28306;BME280;7516;43.570;1.448;2024-01-15T01:48:11;99144.75;;;10.21;100.00
28306;BME280;7516;43.570;1.448;2024-01-15T01:50:38;99136.91;;;10.21;100.00
28306;BME280;7516;43.570;1.448;2024-01-15T01:53:06;99135.50;;;10.18;100.00
28306;BME280;7516;43.570;1.448;2024-01-15T01:55:36;99143.16;;;10.20;100.00
28306;BME280;7516;43.570;1.448;2024-01-15T01:58:05;99131.06;;;10.19;100.00
28306;BME280;7516;43.570;1.448;2024-01-15T02:00:34;99131.25;;;10.17;100.00
28306;BME280;7516;43.570;1.448;2024-01-15T02:03:02;99133.00;;;10.17;100.00
28306;BME280;7516;43.570;1.448;2024-01-15T02:05:32;99142.53;;;10.18;100.00
28306;BME280;7516;43.570;1.448;2024-01-15T02:08:00;99143.16;;;10.20;100.00
28306;BME280;7516;43.570;1.448;2024-01-15T02:10:28;99137.13;;;10.20;100.00
28306;BME280;7516;43.570;1.448;2024-01-15T02:12:55;99141.53;;;10.19;100.00
28306;BME280;7516;43.570;1.448;2024-01-15T02:15:23;99149.38;;;10.19;100.00
28306;BME280;7516;43.570;1.448;2024-01-15T02:17:57;99149.19;;;10.21;100.00
28306;BME280;7516;43.570;1.448;2024-01-15T02:20:25;99146.22;;;10.24;100.00
28306;BME280;7516;43.570;1.448;2024-01-15T02:23:02;99155.06;;;10.23;100.00
28306;BME280;7516;43.570;1.448;2024-01-15T02:25:30;99154.13;;;10.30;100.00
28306;BME280;7516;43.570;1.448;2024-01-15T02:27:57;99151.34;;;10.32;100.00
28306;BME280;7516;43.570;1.448;2024-01-15T02:30:26;99146.47;;;10.29;100.00
28306;BME280;7516;43.570;1.448;2024-01-15T02:32:55;99145.69;;;10.28;100.00
28306;BME280;7516;43.570;1.448;2024-01-15T02:35:23;99143.47;;;10.32;100.00
28306;BME280;7516;43.570;1.448;2024-01-15T02:37:50;99139.22;;;10.31;100.00
28306;BME280;7516;43.570;1.448;2024-01-15T02:40:19;99134.38;;;10.28;100.00
28306;BME280;7516;43.570;1.448;2024-01-15T02:42:46;99125.09;;;10.25;100.00
28306;BME280;7516;43.570;1.448;2024-01-15T02:45:14;99117.41;;;10.24;100.00
28306;BME280;7516;43.570;1.448;2024-01-15T02:47:41;99119.28;;;10.15;100.00
28306;BME280;7516;43.570;1.448;2024-01-15T02:50:09;99109.91;;;10.06;100.00
28306;BME280;7516;43.570;1.448;2024-01-15T02:52:37;99102.19;;;9.98;100.00
28306;BME280;7516;43.570;1.448;2024-01-15T02:55:05;99102.53;;;9.95;100.00
28306;BME280;7516;43.570;1.448;2024-01-15T02:57:34;99115.25;;;9.98;100.00
28306;BME280;7516;43.570;1.448;2024-01-15T03:00:01;99121.13;;;10.00;100.00
28306;BME280;7516;43.570;1.448;2024-01-15T03:02:30;99113.53;;;10.05;100.00
28306;BME280;7516;43.570;1.448;2024-01-15T03:04:58;99102.25;;;10.04;100.00
28306;BME280;7516;43.570;1.448;2024-01-15T03:07:26;99104.06;;;10.04;100.00
28306;BME280;7516;43.570;1.448;2024-01-15T03:09:54;99102.41;;;10.03;100.00
28306;BME280;7516;43.570;1.448;2024-01-15T03:12:21;99107.31;;;10.06;100.00
28306;BME280;7516;43.570;1.448;2024-01-15T03:14:50;99109.91;;;10.06;100.00
28306;BME280;7516;43.570;1.448;2024-01-15T03:17:18;99113.34;;;10.06;100.00
28306;BME280;7516;43.570;1.448;2024-01-15T03:19:45;99106.31;;;10.07;100.00
28306;BME280;7516;43.570;1.448;2024-01-15T03:22:13;99098.09;;;10.10;100.00
28306;BME280;7516;43.570;1.448;2024-01-15T03:24:41;99097.09;;;10.11;100.00
28306;BME280;7516;43.570;1.448;2024-01-15T03:27:08;99085.81;;;10.10;100.00
28306;BME280;7516;43.570;1.448;2024-01-15T03:29:36;99088.06;;;10.13;100.00
28306;BME280;7516;43.570;1.448;2024-01-15T03:32:05;99077.06;;;10.18;100.00
28306;BME280;7516;43.570;1.448;2024-01-15T03:34:32;99087.16;;;10.21;100.00
28306;BME280;7516;43.570;1.448;2024-01-15T03:37:00;99078.50;;;10.21;100.00
28306;BME280;7516;43.570;1.448;2024-01-15T03:39:27;99090.81;;;10.20;100.00
28306;BME280;7516;43.570;1.448;2024-01-15T03:41:55;99088.19;;;10.20;100.00
28306;BME280;7516;43.570;1.448;2024-01-15T03:44:22;99086.44;;;10.27;100.00
28306;BME280;7516;43.570;1.448;2024-01-15T03:46:50;99077.94;;;10.25;100.00
28306;BME280;7516;43.570;1.448;2024-01-15T03:49:19;99061.44;;;10.25;100.00
28306;BME280;7516;43.570;1.448;2024-01-15T03:51:46;99068.66;;;10.23;100.00
28306;BME280;7516;43.570;1.448;2024-01-15T03:54:14;99060.63;;;10.24;100.00
28306;BME280;7516;43.570;1.448;2024-01-15T03:56:41;99057.38;;;10.22;100.00
28306;BME280;7516;43.570;1.448;2024-01-15T03:59:09;99054.38;;;10.25;100.00
28306;BME280;7516;43.570;1.448;2024-01-15T04:01:36;99046.72;;;10.24;100.00
28306;BME280;7516;43.570;1.448;2024-01-15T04:04:04;99050.13;;;10.24;100.00
28306;BME280;7516;43.570;1.448;2024-01-15T04:06:32;99052.94;;;10.23;100.00
28306;BME280;7516;43.570;1.448;2024-01-15T04:09:00;99043.66;;;10.20;100.00
28306;BME280;7516;43.570;1.448;2024-01-15T04:11:27;99048.50;;;10.23;100.00
28306;BME280;7516;43.570;1.448;2024-01-15T04:13:55;99043.66;;;10.20;100.00
28306;BME280;7516;43.570;1.448;2024-01-15T04:16:22;99041.09;;;10.12;100.00
28306;BME280;7516;43.570;1.448;2024-01-15T04:18:50;99034.69;;;10.14;100.00
28306;BME280;7516;43.570;1.448;2024-01-15T04:21:17;99034.88;;;10.13;100.00
28306;BME280;7516;43.570;1.448;2024-01-15T04:23:46;99031.09;;;10.15;100.00
28306;BME280;7516;43.570;1.448;2024-01-15T04:26:14;99029.03;;;10.11;100.00
28306;BME280;7516;43.570;1.448;2024-01-15T04:28:41;99028.03;;;10.12;100.00
28306;BME280;7516;43.570;1.448;2024-01-15T04:31:09;99028.66;;;10.14;100.00
28306;BME280;7516;43.570;1.448;2024-01-15T04:33:36;99024.59;;;10.11;100.00
28306;BME280;7516;43.570;1.448;2024-01-15T04:36:04;99027.03;;;10.13;100.00
28306;BME280;7516;43.570;1.448;2024-01-15T04:38:32;99017.94;;;10.09;100.00
28306;BME280;7516;43.570;1.448;2024-01-15T04:41:31;99012.25;;;10.05;100.00
28306;BME280;7516;43.570;1.448;2024-01-15T04:43:58;99003.78;;;10.03;100.00
28306;BME280;7516;43.570;1.448;2024-01-15T04:46:27;98998.34;;;10.05;100.00
28306;BME280;7516;43.570;1.448;2024-01-15T04:48:54;98995.31;;;10.01;100.00
28306;BME280;7516;43.570;1.448;2024-01-15T04:51:22;98996.13;;;10.02;100.00
28306;BME280;7516;43.570;1.448;2024-01-15T04:53:49;98994.75;;;10.06;100.00
28306;BME280;7516;43.570;1.448;2024-01-15T04:56:17;98990.13;;;10.08;100.00
28306;BME280;7516;43.570;1.448;2024-01-15T04:58:46;98996.81;;;10.10;100.00
28306;BME280;7516;43.570;1.448;2024-01-15T05:01:15;98994.63;;;10.14;100.00
28306;BME280;7516;43.570;1.448;2024-01-15T05:03:42;98982.81;;;10.18;100.00
28306;BME280;7516;43.570;1.448;2024-01-15T05:06:10;98987.75;;;10.13;100.00
28306;BME280;7516;43.570;1.448;2024-01-15T05:08:38;98977.69;;;10.10;100.00
28306;BME280;7516;43.570;1.448;2024-01-15T05:11:05;98976.25;;;10.07;100.00
28306;BME280;7516;43.570;1.448;2024-01-15T05:13:32;98969.97;;;10.02;100.00
28306;BME280;7516;43.570;1.448;2024-01-15T05:16:01;98973.00;;;10.05;100.00
28306;BME280;7516;43.570;1.448;2024-01-15T05:18:29;98976.69;;;10.11;100.00
28306;BME280;7516;43.570;1.448;2024-01-15T05:20:56;98966.22;;;10.11;100.00
28306;BME280;7516;43.570;1.448;2024-01-15T05:23:24;98965.63;;;10.15;100.00
28306;BME280;7516;43.570;1.448;2024-01-15T05:25:51;98970.88;;;10.15;100.00
28306;BME280;7516;43.570;1.448;2024-01-15T05:28:19;98967.81;;;10.12;100.00
28306;BME280;7516;43.570;1.448;2024-01-15T05:30:46;98959.78;;;10.13;100.00
28306;BME280;7516;43.570;1.448;2024-01-15T05:33:15;98943.84;;;10.08;100.00
28306;BME280;7516;43.570;1.448;2024-01-15T05:35:43;98944.81;;;10.07;100.00
28306;BME280;7516;43.570;1.448;2024-01-15T05:38:13;98946.44;;;10.08;100.00
28306;BME280;7516;43.570;1.448;2024-01-15T05:40:41;98953.69;;;10.06;100.00
28306;BME280;7516;43.570;1.448;2024-01-15T05:43:08;98956.34;;;10.13;100.00
28306;BME280;7516;43.570;1.448;2024-01-15T05:45:37;98948.31;;;10.14;100.00
28306;BME280;7516;43.570;1.448;2024-01-15T05:48:05;98948.50;;;10.13;100.00
28306;BME280;7516;43.570;1.448;2024-01-15T05:50:34;98954.13;;;10.10;100.00
28306;BME280;7516;43.570;1.448;2024-01-15T05:53:01;98954.50;;;10.07;100.00
28306;BME280;7516;43.570;1.448;2024-01-15T05:55:29;98960.16;;;10.10;100.00
28306;BME280;7516;43.570;1.448;2024-01-15T05:57:57;98946.16;;;10.18;100.00
28306;BME280;7516;43.570;1.448;2024-01-15T06:00:24;98952.09;;;10.12;100.00
28306;BME280;7516;43.570;1.448;2024-01-15T06:02:52;98960.97;;;10.11;100.00
28306;BME280;7516;43.570;1.448;2024-01-15T06:05:19;98949.69;;;10.10;100.00
28306;BME280;7516;43.570;1.448;2024-01-15T06:07:48;98953.50;;;10.08;100.00
28306;BME280;7516;43.570;1.448;2024-01-15T06:10:15;98959.72;;;10.07;100.00
28306;BME280;7516;43.570;1.448;2024-01-15T06:12:44;98955.66;;;10.04;100.00
28306;BME280;7516;43.570;1.448;2024-01-15T06:15:11;98954.03;;;10.03;100.00
28306;BME280;7516;43.570;1.448;2024-01-15T06:17:39;98956.66;;;10.03;100.00
28306;BME280;7516;43.570;1.448;2024-01-15T06:20:07;98946.41;;;10.02;100.00
28306;BME280;7516;43.570;1.448;2024-01-15T06:22:36;98946.00;;;10.05;100.00
28306;BME280;7516;43.570;1.448;2024-01-15T06:25:07;98949.63;;;10.04;100.00
28306;BME280;7516;43.570;1.448;2024-01-15T06:27:35;98943.97;;;10.00;100.00
28306;BME280;7516;43.570;1.448;2024-01-15T06:30:03;98944.78;;;10.01;100.00
28306;BME280;7516;43.570;1.448;2024-01-15T06:32:31;98944.16;;;9.99;100.00
28306;BME280;7516;43.570;1.448;2024-01-15T06:34:58;98944.50;;;9.96;100.00
28306;BME280;7516;43.570;1.448;2024-01-15T06:37:26;98945.78;;;10.00;100.00
28306;BME280;7516;43.570;1.448;2024-01-15T06:39:53;98948.44;;;10.06;100.00
28306;BME280;7516;43.570;1.448;2024-01-15T06:42:22;98946.06;;;10.11;100.00
28306;BME280;7516;43.570;1.448;2024-01-15T06:44:49;98941.22;;;10.08;100.00
28306;BME280;7516;43.570;1.448;2024-01-15T06:47:17;98928.25;;;10.00;100.00
28306;BME280;7516;43.570;1.448;2024-01-15T06:49:44;98929.66;;;10.03;100.00
28306;BME280;7516;43.570;1.448;2024-01-15T06:52:12;98925.06;;;10.05;100.00
28306;BME280;7516;43.570;1.448;2024-01-15T06:54:39;98931.88;;;9.99;100.00
28306;BME280;7516;43.570;1.448;2024-01-15T06:57:07;98935.13;;;10.01;100.00
28306;BME280;7516;43.570;1.448;2024-01-15T06:59:36;98930.88;;;10.00;100.00
28306;BME280;7516;43.570;1.448;2024-01-15T07:02:03;98928.63;;;9.97;100.00
28306;BME280;7516;43.570;1.448;2024-01-15T07:04:31;98921.81;;;10.03;100.00
28306;BME280;7516;43.570;1.448;2024-01-15T07:06:59;98911.34;;;10.03;100.00
28306;BME280;7516;43.570;1.448;2024-01-15T07:09:27;98906.50;;;10.00;100.00
28306;BME280;7516;43.570;1.448;2024-01-15T07:11:55;98909.75;;;10.02;100.00
28306;BME280;7516;43.570;1.448;2024-01-15T07:14:24;98908.13;;;10.01;100.00
28306;BME280;7516;43.570;1.448;2024-01-15T07:16:53;98902.94;;;10.07;100.00
28306;BME280;7516;43.570;1.448;2024-01-15T07:19:21;98903.31;;;10.04;100.00
28306;BME280;7516;43.570;1.448;2024-01-15T07:21:48;98903.50;;;10.03;100.00
28306;BME280;7516;43.570;1.448;2024-01-15T07:24:16;98908.19;;;10.07;100.00
28306;BME280;7516;43.570;1.448;2024-01-15T07:26:43;98906.56;;;10.06;100.00
28306;BME280;7516;43.570;1.448;2024-01-15T07:29:11;98909.63;;;10.10;100.00
28306;BME280;7516;43.570;1.448;2024-01-15T07:31:38;98898.94;;;10.11;100.00
28306;BME280;7516;43.570;1.448;2024-01-15T07:34:07;98899.53;;;10.07;100.00
28306;BME280;7516;43.570;1.448;2024-01-15T07:36:34;98909.00;;;10.08;100.00
28306;BME280;7516;43.570;1.448;2024-01-15T07:39:02;98912.59;;;10.07;100.00
28306;BME280;7516;43.570;1.448;2024-01-15T07:41:30;98914.22;;;10.08;100.00
28306;BME280;7516;43.570;1.448;2024-01-15T07:43:58;98909.00;;;10.08;100.00
28306;BME280;7516;43.570;1.448;2024-01-15T07:46:25;98913.41;;;10.07;100.00
28306;BME280;7516;43.570;1.448;2024-01-15T07:48:53;98906.38;;;10.08;100.00
28306;BME280;7516;43.570;1.448;2024-01-15T07:51:24;98909.41;;;10.11;100.00
28306;BME280;7516;43.570;1.448;2024-01-15T07:53:53;98910.63;;;10.09;100.00
28306;BME280;7516;43.570;1.448;2024-01-15T07:56:21;98907.81;;;10.10;100.00
28306;BME280;7516;43.570;1.448;2024-01-15T07:58:48;98913.06;;;10.10;100.00
28306;BME280;7516;43.570;1.448;2024-01-15T08:01:16;98914.28;;;10.14;100.00
28306;BME280;7516;43.570;1.448;2024-01-15T08:03:43;98919.00;;;10.19;100.00
28306;BME280;7516;43.570;1.448;2024-01-15T08:06:11;98914.56;;;10.20;100.00
28306;BME280;7516;43.570;1.448;2024-01-15T08:08:40;98919.50;;;10.14;100.00
28306;BME280;7516;43.570;1.448;2024-01-15T08:11:07;98922.13;;;10.14;100.00
28306;BME280;7516;43.570;1.448;2024-01-15T08:13:35;98928.47;;;10.20;100.00
28306;BME280;7516;43.570;1.448;2024-01-15T08:16:02;98930.47;;;10.18;100.00
28306;BME280;7516;43.570;1.448;2024-01-15T08:18:30;98926.44;;;10.22;100.00
28306;BME280;7516;43.570;1.448;2024-01-15T08:20:57;98938.19;;;10.26;100.00
28306;BME280;7516;43.570;1.448;2024-01-15T08:23:25;98951.13;;;10.34;100.00
28306;BME280;7516;43.570;1.448;2024-01-15T08:25:55;98949.50;;;10.33;100.00
28306;BME280;7516;43.570;1.448;2024-01-15T08:28:24;98949.50;;;10.33;100.00
28306;BME280;7516;43.570;1.448;2024-01-15T08:30:51;98955.56;;;10.34;100.00
28306;BME280;7516;43.570;1.448;2024-01-15T08:33:19;98949.16;;;10.36;100.00
28306;BME280;7516;43.570;1.448;2024-01-15T08:35:46;98947.38;;;10.43;100.00
28306;BME280;7516;43.570;1.448;2024-01-15T08:38:13;98949.19;;;10.43;100.00
28306;BME280;7516;43.570;1.448;2024-01-15T08:40:41;98951.84;;;10.49;100.00
28306;BME280;7516;43.570;1.448;2024-01-15T08:43:10;98939.38;;;10.51;100.00
28306;BME280;7516;43.570;1.448;2024-01-15T08:45:38;98949.63;;;10.46;100.00
28306;BME280;7516;43.570;1.448;2024-01-15T08:48:05;98956.47;;;10.47;100.00
28306;BME280;7516;43.570;1.448;2024-01-15T08:50:33;98960.34;;;10.51;100.00
28306;BME280;7516;43.570;1.448;2024-01-15T08:53:00;98957.13;;;10.56;100.00
28306;BME280;7516;43.570;1.448;2024-01-15T08:55:28;98955.94;;;10.59;100.00
28306;BME280;7516;43.570;1.448;2024-01-15T08:57:56;98951.69;;;10.57;100.00
28306;BME280;7516;43.570;1.448;2024-01-15T09:00:24;98945.91;;;10.62;100.00
28306;BME280;7516;43.570;1.448;2024-01-15T09:02:52;98942.28;;;10.63;100.00
28306;BME280;7516;43.570;1.448;2024-01-15T09:05:19;98955.56;;;10.62;100.00
28306;BME280;7516;43.570;1.448;2024-01-15T09:07:47;98943.69;;;10.66;100.00
28306;BME280;7516;43.570;1.448;2024-01-15T09:10:14;98955.16;;;10.65;100.00
28306;BME280;7516;43.570;1.448;2024-01-15T09:12:42;98959.03;;;10.69;100.00
28306;BME280;7516;43.570;1.448;2024-01-15T09:15:09;98954.56;;;10.63;100.00
28306;BME280;7516;43.570;1.448;2024-01-15T09:17:39;98954.44;;;10.71;100.00
28306;BME280;7516;43.570;1.448;2024-01-15T09:20:07;98948.59;;;10.75;100.00
28306;BME280;7516;43.570;1.448;2024-01-15T09:22:35;98955.84;;;10.73;100.00
28306;BME280;7516;43.570;1.448;2024-01-15T09:25:05;98957.09;;;10.77;100.00
28306;BME280;7516;43.570;1.448;2024-01-15T09:27:32;98968.41;;;10.84;100.00
28306;BME280;7516;43.570;1.448;2024-01-15T09:30:00;98963.97;;;10.85;100.00
28306;BME280;7516;43.570;1.448;2024-01-15T09:32:27;98965.38;;;10.81;100.00
28306;BME280;7516;43.570;1.448;2024-01-15T09:34:56;98961.13;;;10.80;100.00
28306;BME280;7516;43.570;1.448;2024-01-15T09:37:24;98962.38;;;10.84;100.00
28306;BME280;7516;43.570;1.448;2024-01-15T09:39:51;98961.19;;;10.86;100.00
28306;BME280;7516;43.570;1.448;2024-01-15T09:42:20;98964.78;;;10.85;100.00
28306;BME280;7516;43.570;1.448;2024-01-15T09:44:48;98969.47;;;10.90;100.00
28306;BME280;7516;43.570;1.448;2024-01-15T09:47:16;98967.09;;;11.02;100.00
28306;BME280;7516;43.570;1.448;2024-01-15T09:49:44;98958.03;;;10.98;100.00
28306;BME280;7516;43.570;1.448;2024-01-15T09:52:14;98957.63;;;11.01;100.00
28306;BME280;7516;43.570;1.448;2024-01-15T09:54:44;98954.03;;;11.08;100.00
28306;BME280;7516;43.570;1.448;2024-01-15T09:57:13;98956.50;;;11.16;100.00
28306;BME280;7516;43.570;1.448;2024-01-15T09:59:43;98946.03;;;11.23;100.00
28306;BME280;7516;43.570;1.448;2024-01-15T10:02:12;98962.75;;;11.15;100.00
28306;BME280;7516;43.570;1.448;2024-01-15T10:04:44;98960.50;;;11.12;100.00
28306;BME280;7516;43.570;1.448;2024-01-15T10:07:16;98964.50;;;11.08;100.00
28306;BME280;7516;43.570;1.448;2024-01-15T10:09:45;98968.59;;;11.17;100.00
28306;BME280;7516;43.570;1.448;2024-01-15T10:12:13;98972.69;;;11.26;100.00
28306;BME280;7516;43.570;1.448;2024-01-15T10:14:41;98969.06;;;11.27;100.00
28306;BME280;7516;43.570;1.448;2024-01-15T10:17:12;98968.47;;;11.32;100.00
28306;BME280;7516;43.570;1.448;2024-01-15T10:19:41;98972.75;;;11.40;100.00
28306;BME280;7516;43.570;1.448;2024-01-15T10:22:09;98966.72;;;11.52;100.00
28306;BME280;7516;43.570;1.448;2024-01-15T10:24:38;98965.72;;;11.47;100.00
28306;BME280;7516;43.570;1.448;2024-01-15T10:27:07;98963.91;;;11.54;100.00
28306;BME280;7516;43.570;1.448;2024-01-15T10:29:36;98960.28;;;11.48;100.00
28306;BME280;7516;43.570;1.448;2024-01-15T10:32:06;98962.09;;;11.48;100.00
28306;BME280;7516;43.570;1.448;2024-01-15T10:34:33;98973.56;;;11.40;100.00
28306;BME280;7516;43.570;1.448;2024-01-15T10:37:04;98958.38;;;11.36;100.00
28306;BME280;7516;43.570;1.448;2024-01-15T10:39:33;98961.00;;;11.36;100.00
28306;BME280;7516;43.570;1.448;2024-01-15T10:42:01;98962.63;;;11.37;100.00
28306;BME280;7516;43.570;1.448;2024-01-15T10:44:29;98955.38;;;11.39;100.00
28306;BME280;7516;43.570;1.448;2024-01-15T10:46:57;98951.13;;;11.38;100.00
28306;BME280;7516;43.570;1.448;2024-01-15T10:49:25;98947.13;;;11.42;100.00
28306;BME280;7516;43.570;1.448;2024-01-15T10:51:54;98935.22;;;11.46;100.00
28306;BME280;7516;43.570;1.448;2024-01-15T10:54:23;98938.91;;;11.51;100.00
28306;BME280;7516;43.570;1.448;2024-01-15T10:56:51;98932.22;;;11.49;100.00
28306;BME280;7516;43.570;1.448;2024-01-15T10:59:22;98935.47;;;11.51;100.00
28306;BME280;7516;43.570;1.448;2024-01-15T11:01:50;98935.66;;;11.49;100.00
28306;BME280;7516;43.570;1.448;2024-01-15T11:04:19;98926.78;;;11.50;100.00
28306;BME280;7516;43.570;1.448;2024-01-15T11:06:51;98925.97;;;11.56;100.00
28306;BME280;7516;43.570;1.448;2024-01-15T11:09:19;98927.22;;;11.60;100.00
28306;BME280;7516;43.570;1.448;2024-01-15T11:11:47;98920.13;;;11.61;100.00
28306;BME280;7516;43.570;1.448;2024-01-15T11:14:35;98915.91;;;11.60;100.00
28306;BME280;7516;43.570;1.448;2024-01-15T11:17:03;98926.41;;;11.60;100.00
28306;BME280;7516;43.570;1.448;2024-01-15T11:19:44;98924.81;;;11.72;100.00
28306;BME280;7516;43.570;1.448;2024-01-15T11:22:47;98911.06;;;11.70;100.00
28306;BME280;7516;43.570;1.448;2024-01-15T11:25:15;98911.88;;;11.64;100.00
28306;BME280;7516;43.570;1.448;2024-01-15T11:27:46;98906.63;;;11.64;100.00
28306;BME280;7516;43.570;1.448;2024-01-15T11:30:19;98907.44;;;11.71;100.00
28306;BME280;7516;43.570;1.448;2024-01-15T11:32:47;98912.94;;;11.76;100.00
28306;BME280;7516;43.570;1.448;2024-01-15T11:35:14;98897.38;;;11.81;100.00
28306;BME280;7516;43.570;1.448;2024-01-15T11:37:58;98895.38;;;11.77;100.00
28306;BME280;7516;43.570;1.448;2024-01-15T11:40:39;98886.50;;;11.84;100.00
28306;BME280;7516;43.570;1.448;2024-01-15T11:43:08;98886.31;;;11.86;100.00
28306;BME280;7516;43.570;1.448;2024-01-15T11:45:38;98882.88;;;11.85;100.00
28306;BME280;7516;43.570;1.448;2024-01-15T11:48:11;98891.38;;;11.87;100.00
28306;BME280;7516;43.570;1.448;2024-01-15T11:50:41;98890.94;;;11.84;100.00
28306;BME280;7516;43.570;1.448;2024-01-15T11:53:17;98891.75;;;11.91;100.00
28306;BME280;7516;43.570;1.448;2024-01-15T11:55:49;98892.75;;;11.96;100.00
28306;BME280;7516;43.570;1.448;2024-01-15T11:58:18;98883.47;;;12.00;100.00
28306;BME280;7516;43.570;1.448;2024-01-15T12:00:49;98887.91;;;12.00;100.00
28306;BME280;7516;43.570;1.448;2024-01-15T12:03:17;98880.44;;;11.97;100.00
28306;BME280;7516;43.570;1.448;2024-01-15T12:05:45;98876.00;;;11.97;100.00
28306;BME280;7516;43.570;1.448;2024-01-15T12:08:12;98879.44;;;11.91;100.00
28306;BME280;7516;43.570;1.448;2024-01-15T12:10:40;98878.63;;;11.97;100.00
28306;BME280;7516;43.570;1.448;2024-01-15T12:13:11;98869.53;;;12.06;100.00
28306;BME280;7516;43.570;1.448;2024-01-15T12:15:40;98865.28;;;12.05;100.00
28306;BME280;7516;43.570;1.448;2024-01-15T12:18:11;98865.50;;;12.11;100.00
28306;BME280;7516;43.570;1.448;2024-01-15T12:20:40;98863.88;;;12.10;100.00
28306;BME280;7516;43.570;1.448;2024-01-15T12:23:09;98857.22;;;12.14;100.00
28306;BME280;7516;43.570;1.448;2024-01-15T12:25:37;98838.22;;;12.18;100.00
28306;BME280;7516;43.570;1.448;2024-01-15T12:28:05;98850.34;;;12.19;100.00
28306;BME280;7516;43.570;1.448;2024-01-15T12:30:34;98848.13;;;12.16;100.00
28306;BME280;7516;43.570;1.448;2024-01-15T12:33:04;98848.72;;;12.05;100.00
28306;BME280;7516;43.570;1.448;2024-01-15T12:35:33;98844.91;;;12.01;100.00
28306;BME280;7516;43.570;1.448;2024-01-15T12:38:02;98831.75;;;12.07;100.00
28306;BME280;7516;43.570;1.448;2024-01-15T12:40:30;98842.25;;;12.07;100.00
28306;BME280;7516;43.570;1.448;2024-01-15T12:42:58;98826.50;;;12.07;100.00
28306;BME280;7516;43.570;1.448;2024-01-15T12:45:26;98830.34;;;12.12;100.00
28306;BME280;7516;43.570;1.448;2024-01-15T12:47:54;98822.03;;;12.15;100.00
28306;BME280;7516;43.570;1.448;2024-01-15T12:50:24;98823.69;;;12.09;100.00
28306;BME280;7516;43.570;1.448;2024-01-15T12:52:54;98816.41;;;12.11;100.00
28306;BME280;7516;43.570;1.448;2024-01-15T12:55:21;98819.03;;;12.11;100.00
28306;BME280;7516;43.570;1.448;2024-01-15T12:57:49;98827.50;;;12.20;100.00
28306;BME280;7516;43.570;1.448;2024-01-15T13:00:18;98815.78;;;12.16;100.00
28306;BME280;7516;43.570;1.448;2024-01-15T13:02:46;98820.47;;;12.14;100.00
28306;BME280;7516;43.570;1.448;2024-01-15T13:05:13;98820.25;;;12.09;100.00
28306;BME280;7516;43.570;1.448;2024-01-15T13:07:42;98811.34;;;12.10;100.00